createdAt,value
2022-09-12T00:00:07.874Z,13.62
2022-09-12T00:02:34.012Z,13.58
2022-09-12T00:05:00.134Z,13.51
2022-09-12T00:07:26.293Z,13.47
2022-09-12T00:09:52.434Z,13.44
2022-09-12T00:12:18.570Z,13.40
2022-09-12T00:14:44.689Z,13.39
2022-09-12T00:17:10.851Z,13.37
2022-09-12T00:19:36.966Z,13.31
2022-09-12T00:22:03.084Z,13.31
2022-09-12T00:24:29.227Z,13.30
2022-09-12T00:26:55.365Z,13.28
2022-09-12T00:29:21.491Z,13.27
2022-09-12T00:31:47.646Z,13.24
2022-09-12T00:34:14.618Z,13.19
2022-09-12T00:36:40.859Z,13.17
2022-09-12T00:39:07.031Z,13.10
2022-09-12T00:41:33.158Z,13.06
2022-09-12T00:43:59.266Z,13.02
2022-09-12T00:46:25.410Z,13.08
2022-09-12T00:48:51.537Z,13.07
2022-09-12T00:51:17.654Z,13.07
2022-09-12T00:53:43.786Z,13.04
2022-09-12T00:56:09.901Z,13.00
2022-09-12T00:58:36.025Z,12.99
2022-09-12T01:01:02.265Z,12.95
2022-09-12T01:03:28.486Z,12.96
2022-09-12T01:05:54.619Z,12.93
2022-09-12T01:08:20.739Z,12.94
2022-09-12T01:10:46.872Z,12.96
2022-09-12T01:13:12.997Z,12.89
2022-09-12T01:15:39.140Z,12.94
2022-09-12T01:18:05.252Z,12.94
2022-09-12T01:20:31.378Z,12.98
2022-09-12T01:22:57.515Z,12.89
2022-09-12T01:25:23.648Z,12.95
2022-09-12T01:27:49.817Z,12.97
2022-09-12T01:30:15.945Z,12.85
2022-09-12T01:32:42.078Z,12.84
2022-09-12T01:35:08.211Z,12.85
2022-09-12T01:37:34.336Z,12.83
2022-09-12T01:40:00.568Z,12.78
2022-09-12T01:42:26.731Z,12.74
2022-09-12T01:44:52.852Z,12.73
2022-09-12T01:47:18.983Z,12.77
2022-09-12T01:49:45.114Z,12.75
2022-09-12T01:52:11.240Z,12.77
2022-09-12T01:54:37.430Z,12.73
2022-09-12T01:57:03.545Z,12.71
2022-09-12T01:59:29.723Z,12.62
2022-09-12T02:01:55.927Z,12.63
2022-09-12T02:04:22.086Z,12.68
2022-09-12T02:06:48.230Z,12.62
2022-09-12T02:09:14.338Z,12.63
2022-09-12T02:11:40.460Z,12.59
2022-09-12T02:14:06.664Z,12.58
2022-09-12T02:16:32.806Z,12.60
2022-09-12T02:18:58.966Z,12.56
2022-09-12T02:21:25.135Z,12.54
2022-09-12T02:23:51.289Z,12.48
2022-09-12T02:26:17.422Z,12.45
2022-09-12T02:28:43.594Z,12.36
2022-09-12T02:31:09.745Z,12.27
2022-09-12T02:33:35.870Z,12.21
2022-09-12T02:36:01.990Z,12.19
2022-09-12T02:38:28.113Z,12.10
2022-09-12T02:40:54.229Z,12.10
2022-09-12T02:43:20.355Z,12.13
2022-09-12T02:45:46.492Z,12.11
2022-09-12T02:48:13.543Z,12.11
2022-09-12T02:50:39.784Z,12.07
2022-09-12T02:53:05.900Z,12.06
2022-09-12T02:55:32.036Z,12.08
2022-09-12T02:57:58.183Z,12.07
2022-09-12T03:00:24.318Z,12.10
2022-09-12T03:02:50.433Z,11.98
2022-09-12T03:05:16.548Z,12.00
2022-09-12T03:07:42.683Z,11.99
2022-09-12T03:10:08.817Z,11.95
2022-09-12T03:12:34.939Z,11.99
2022-09-12T03:15:01.077Z,11.99
2022-09-12T03:17:27.210Z,11.97
2022-09-12T03:19:53.320Z,11.97
2022-09-12T03:22:19.503Z,11.98
2022-09-12T03:24:45.609Z,11.98
2022-09-12T03:27:11.754Z,11.99
2022-09-12T03:29:37.887Z,12.02
2022-09-12T03:32:04.000Z,11.96
2022-09-12T03:34:30.105Z,11.98
2022-09-12T03:36:56.282Z,12.00
2022-09-12T03:39:22.395Z,11.97
2022-09-12T03:41:48.505Z,11.97
2022-09-12T03:44:14.645Z,11.95
2022-09-12T03:46:40.755Z,11.97
2022-09-12T03:49:06.872Z,11.92
2022-09-12T03:51:33.014Z,11.87
2022-09-12T03:53:59.126Z,11.88
2022-09-12T03:56:25.244Z,11.80
2022-09-12T03:58:51.368Z,11.81
2022-09-12T04:01:17.540Z,11.72
2022-09-12T04:03:43.680Z,11.69
2022-09-12T04:06:09.844Z,11.68
2022-09-12T04:08:35.988Z,11.63
2022-09-12T04:11:02.100Z,11.61
2022-09-12T04:13:28.232Z,11.57
2022-09-12T04:15:54.349Z,11.59
2022-09-12T04:18:20.464Z,11.54
2022-09-12T04:20:46.617Z,11.55
2022-09-12T04:23:12.738Z,11.50
2022-09-12T04:25:38.838Z,11.54
2022-09-12T04:28:04.990Z,11.63
2022-09-12T04:30:31.119Z,11.58
2022-09-12T04:32:57.233Z,11.58
2022-09-12T04:35:23.376Z,11.54
2022-09-12T04:37:49.516Z,11.51
2022-09-12T04:40:16.173Z,11.50
2022-09-12T04:42:42.338Z,11.50
2022-09-12T04:45:08.456Z,11.51
2022-09-12T04:47:34.574Z,11.45
2022-09-12T04:50:00.717Z,11.42
2022-09-12T04:52:26.852Z,11.36
2022-09-12T04:54:53.009Z,11.32
2022-09-12T04:57:19.115Z,11.29
2022-09-12T04:59:45.218Z,11.26
2022-09-12T05:02:11.439Z,11.23
2022-09-12T05:04:37.646Z,11.23
2022-09-12T05:07:03.765Z,11.25
2022-09-12T05:09:29.881Z,11.28
2022-09-12T05:12:04.671Z,11.28
2022-09-12T05:14:31.587Z,11.26
2022-09-12T05:16:57.758Z,11.24
2022-09-12T05:19:23.893Z,11.22
2022-09-12T05:21:50.019Z,11.21
2022-09-12T05:24:16.167Z,11.19
2022-09-12T05:26:42.289Z,11.22
2022-09-12T05:29:08.416Z,11.22
2022-09-12T05:31:34.523Z,11.23
2022-09-12T05:34:00.644Z,11.22
2022-09-12T05:36:26.768Z,11.25
2022-09-12T05:38:53.003Z,11.30
2022-09-12T05:41:24.220Z,11.34
2022-09-12T05:43:51.079Z,11.41
2022-09-12T05:46:17.459Z,11.46
2022-09-12T05:48:43.582Z,11.55
2022-09-12T05:51:09.686Z,11.65
2022-09-12T05:53:35.832Z,11.79
2022-09-12T05:56:01.951Z,11.89
2022-09-12T05:58:28.108Z,12.03
2022-09-12T06:00:54.270Z,12.19
2022-09-12T06:03:21.406Z,12.34
2022-09-12T06:05:50.582Z,12.53
2022-09-12T06:08:16.888Z,12.69
2022-09-12T06:10:43.023Z,12.79
2022-09-12T06:13:09.304Z,13.01
2022-09-12T06:15:35.502Z,13.16
2022-09-12T06:18:01.635Z,13.32
2022-09-12T06:20:27.756Z,13.67
2022-09-12T06:22:53.884Z,13.94
2022-09-12T06:25:20.030Z,14.34
2022-09-12T06:27:46.153Z,14.71
2022-09-12T06:30:12.470Z,15.02
2022-09-12T06:32:38.617Z,15.33
2022-09-12T06:35:04.742Z,15.59
2022-09-12T06:37:30.855Z,15.73
2022-09-12T06:39:57.013Z,15.86
2022-09-12T06:42:23.311Z,15.88
2022-09-12T06:44:49.459Z,15.93
2022-09-12T06:47:15.639Z,15.95
2022-09-12T06:49:41.826Z,15.97
2022-09-12T06:52:07.972Z,16.07
2022-09-12T06:54:34.094Z,16.16
2022-09-12T06:57:00.198Z,16.28
2022-09-12T06:59:26.331Z,16.48
2022-09-12T07:01:52.524Z,16.69
2022-09-12T07:04:18.656Z,16.99
2022-09-12T07:06:44.797Z,17.16
2022-09-12T07:09:10.911Z,17.24
2022-09-12T07:11:37.075Z,17.34
2022-09-12T07:14:03.237Z,17.67
2022-09-12T07:16:30.335Z,17.95
2022-09-12T07:18:56.721Z,18.09
2022-09-12T07:21:22.876Z,18.29
2022-09-12T07:23:49.020Z,18.51
2022-09-12T07:26:15.157Z,18.62
2022-09-12T07:28:41.318Z,18.50
2022-09-12T07:31:07.515Z,18.75
2022-09-12T07:33:33.699Z,18.81
2022-09-12T07:35:59.836Z,18.78
2022-09-12T07:38:25.990Z,18.90
2022-09-12T07:40:52.094Z,18.97
2022-09-12T07:43:18.211Z,19.17
2022-09-12T07:45:44.385Z,19.26
2022-09-12T07:48:10.648Z,19.26
2022-09-12T07:50:36.798Z,19.42
2022-09-12T07:53:02.899Z,19.34
2022-09-12T07:55:29.054Z,19.36
2022-09-12T07:57:55.227Z,19.52
2022-09-12T08:00:21.349Z,19.53
2022-09-12T08:02:47.504Z,19.82
2022-09-12T08:05:13.724Z,19.96
2022-09-12T08:07:39.880Z,20.26
2022-09-12T08:10:06.020Z,20.43
2022-09-12T08:12:32.148Z,20.54
2022-09-12T08:14:58.307Z,20.62
2022-09-12T08:17:24.455Z,20.66
2022-09-12T08:19:50.609Z,20.69
2022-09-12T08:22:16.746Z,21.07
2022-09-12T08:24:42.875Z,21.30
2022-09-12T08:27:09.001Z,21.14
2022-09-12T08:29:35.104Z,21.39
2022-09-12T08:32:01.276Z,21.32
2022-09-12T08:34:27.484Z,21.43
2022-09-12T08:36:53.612Z,21.51
2022-09-12T08:39:19.775Z,21.58
2022-09-12T08:41:45.927Z,21.77
2022-09-12T08:44:12.058Z,21.97
2022-09-12T08:46:38.174Z,21.93
2022-09-12T08:49:04.331Z,22.15
2022-09-12T08:51:30.497Z,22.36
2022-09-12T08:53:56.629Z,22.49
2022-09-12T08:56:22.775Z,22.66
2022-09-12T08:58:48.884Z,22.62
2022-09-12T09:01:15.098Z,22.59
2022-09-12T09:03:41.303Z,22.53
2022-09-12T09:06:07.415Z,22.59
2022-09-12T09:08:33.566Z,22.58
2022-09-12T09:10:59.698Z,22.54
2022-09-12T09:13:25.841Z,22.55
2022-09-12T09:15:52.056Z,22.71
2022-09-12T09:18:18.202Z,22.67
2022-09-12T09:20:44.404Z,22.79
2022-09-12T09:23:10.536Z,22.97
2022-09-12T09:25:36.662Z,23.01
2022-09-12T09:28:02.809Z,23.07
2022-09-12T09:30:28.920Z,23.09
2022-09-12T09:32:55.046Z,23.01
2022-09-12T09:35:21.192Z,22.88
2022-09-12T09:37:47.381Z,22.84
2022-09-12T09:40:13.583Z,22.78
2022-09-12T09:42:39.820Z,22.96
2022-09-12T09:45:05.965Z,22.81
2022-09-12T09:47:32.135Z,22.89
2022-09-12T09:49:58.533Z,23.00
2022-09-12T09:52:24.733Z,22.94
2022-09-12T09:54:50.875Z,22.83
2022-09-12T09:57:17.029Z,22.68
2022-09-12T09:59:43.189Z,22.72
2022-09-12T10:02:09.369Z,22.90
2022-09-12T10:04:39.348Z,22.98
2022-09-12T10:07:07.509Z,23.19
2022-09-12T10:09:33.645Z,23.46
2022-09-12T10:11:59.776Z,23.56
2022-09-12T10:14:25.903Z,23.73
2022-09-12T10:16:52.052Z,23.94
2022-09-12T10:19:18.236Z,24.02
2022-09-12T10:21:44.375Z,23.97
2022-09-12T10:24:10.526Z,23.96
2022-09-12T10:26:37.685Z,23.99
2022-09-12T10:29:03.924Z,24.11
2022-09-12T10:31:30.051Z,24.05
2022-09-12T10:33:56.214Z,23.91
2022-09-12T10:36:22.357Z,24.09
2022-09-12T10:38:48.462Z,24.13
2022-09-12T10:41:14.602Z,24.39
2022-09-12T10:43:40.741Z,24.53
2022-09-12T10:46:06.959Z,24.56
2022-09-12T10:48:33.186Z,24.66
2022-09-12T10:50:59.312Z,24.50
2022-09-12T10:53:25.451Z,24.72
2022-09-12T10:55:51.593Z,24.53
2022-09-12T10:58:17.743Z,24.56
2022-09-12T11:00:43.893Z,24.53
2022-09-12T11:03:10.038Z,24.48
2022-09-12T11:05:36.154Z,24.43
2022-09-12T11:08:02.358Z,24.57
2022-09-12T11:10:30.981Z,24.73
2022-09-12T11:12:59.253Z,24.99
2022-09-12T11:15:25.485Z,25.13
2022-09-12T11:17:51.606Z,25.42
2022-09-12T11:20:17.732Z,25.54
2022-09-12T11:22:43.907Z,25.51
2022-09-12T11:25:10.035Z,25.32
2022-09-12T11:27:36.175Z,25.29
2022-09-12T11:30:02.302Z,25.28
2022-09-12T11:32:28.452Z,25.23
2022-09-12T11:34:54.572Z,25.45
2022-09-12T11:37:20.713Z,25.57
2022-09-12T11:39:46.936Z,25.60
2022-09-12T11:42:13.168Z,25.68
2022-09-12T11:44:40.379Z,25.70
2022-09-12T11:47:06.592Z,25.61
2022-09-12T11:49:35.585Z,25.44
2022-09-12T11:52:02.004Z,25.48
2022-09-12T11:54:28.140Z,25.38
2022-09-12T11:56:54.301Z,25.60
2022-09-12T11:59:20.508Z,25.56
2022-09-12T12:01:48.668Z,25.79
2022-09-12T12:04:15.029Z,26.05
2022-09-12T12:06:41.260Z,26.05
2022-09-12T12:09:07.451Z,25.91
2022-09-12T12:11:33.611Z,25.99
2022-09-12T12:14:02.457Z,25.91
2022-09-12T12:16:28.625Z,25.83
2022-09-12T12:18:54.850Z,25.89
2022-09-12T12:21:21.067Z,26.05
2022-09-12T12:23:47.335Z,26.18
2022-09-12T12:26:13.599Z,26.18
2022-09-12T12:28:39.764Z,26.02
2022-09-12T12:31:06.035Z,25.96
2022-09-12T12:33:32.221Z,25.92
2022-09-12T12:35:58.375Z,25.81
2022-09-12T12:38:24.556Z,25.68
2022-09-12T12:40:50.741Z,25.77
2022-09-12T12:43:16.872Z,25.77
2022-09-12T12:45:43.031Z,25.76
2022-09-12T12:48:09.256Z,25.84
2022-09-12T12:50:35.461Z,25.81
2022-09-12T12:53:01.611Z,25.84
2022-09-12T12:55:27.771Z,25.75
2022-09-12T12:57:53.929Z,25.75
2022-09-12T13:00:20.119Z,25.86
2022-09-12T13:02:46.404Z,26.09
2022-09-12T13:05:12.639Z,26.25
2022-09-12T13:07:38.802Z,26.12
2022-09-12T13:10:04.982Z,26.08
2022-09-12T13:12:31.144Z,26.06
2022-09-12T13:14:57.269Z,26.03
2022-09-12T13:17:23.388Z,25.93
2022-09-12T13:20:10.612Z,26.00
2022-09-12T13:22:38.049Z,26.15
2022-09-12T13:25:06.254Z,26.24
2022-09-12T13:27:32.393Z,26.20
2022-09-12T13:29:58.588Z,26.15
2022-09-12T13:32:24.735Z,26.17
2022-09-12T13:34:50.858Z,26.21
2022-09-12T13:37:17.027Z,26.11
2022-09-12T13:39:43.210Z,26.00
2022-09-12T13:42:09.423Z,26.22
2022-09-12T13:44:35.571Z,26.35
2022-09-12T13:47:01.740Z,26.49
2022-09-12T13:49:27.894Z,26.42
2022-09-12T13:51:54.018Z,26.63
2022-09-12T13:54:24.694Z,26.44
2022-09-12T13:56:50.970Z,26.54
2022-09-12T13:59:17.120Z,26.59
2022-09-12T14:01:44.368Z,26.67
2022-09-12T14:04:11.176Z,26.59
2022-09-12T14:06:37.305Z,26.42
2022-09-12T14:09:03.434Z,26.39
2022-09-12T14:11:30.157Z,26.30
2022-09-12T14:13:56.845Z,26.36
2022-09-12T14:16:23.024Z,26.39
2022-09-12T14:18:49.942Z,26.39
2022-09-12T14:21:16.082Z,26.40
2022-09-12T14:23:42.288Z,26.31
2022-09-12T14:26:08.443Z,26.43
2022-09-12T14:28:36.391Z,26.41
2022-09-12T14:31:02.712Z,26.37
2022-09-12T14:33:28.858Z,26.46
2022-09-12T14:35:56.396Z,26.49
2022-09-12T14:38:23.714Z,26.38
2022-09-12T14:40:52.701Z,26.49
2022-09-12T14:43:18.830Z,26.64
2022-09-12T14:45:44.989Z,26.78
2022-09-12T14:48:11.147Z,26.88
2022-09-12T14:50:37.321Z,27.02
2022-09-12T14:53:03.488Z,26.98
2022-09-12T14:55:29.620Z,27.02
2022-09-12T14:57:55.772Z,27.04
2022-09-12T15:00:24.910Z,27.21
2022-09-12T15:02:51.065Z,27.33
2022-09-12T15:05:17.200Z,27.33
2022-09-12T15:07:43.411Z,27.44
2022-09-12T15:10:09.554Z,27.52
2022-09-12T15:12:35.764Z,27.47
2022-09-12T15:15:02.004Z,27.63
2022-09-12T15:17:28.229Z,27.72
2022-09-12T15:19:54.383Z,27.94
2022-09-12T15:22:20.548Z,27.78
2022-09-12T15:24:46.720Z,27.72
2022-09-12T15:27:12.868Z,27.80
2022-09-12T15:29:38.996Z,27.67
2022-09-12T15:32:05.191Z,28.01
2022-09-12T15:34:31.332Z,28.00
2022-09-12T15:36:57.469Z,28.12
2022-09-12T15:39:23.701Z,28.10
2022-09-12T15:41:49.908Z,28.11
2022-09-12T15:44:16.036Z,28.23
2022-09-12T15:46:42.233Z,28.23
2022-09-12T15:49:08.743Z,28.12
2022-09-12T15:51:34.946Z,28.26
2022-09-12T15:54:01.106Z,28.50
2022-09-12T15:56:27.240Z,28.61
2022-09-12T15:59:00.615Z,28.43
2022-09-12T16:01:29.855Z,28.27
2022-09-12T16:03:56.054Z,27.98
2022-09-12T16:06:22.240Z,27.51
2022-09-12T16:08:48.520Z,26.99
2022-09-12T16:11:14.822Z,26.65
2022-09-12T16:13:40.961Z,26.14
2022-09-12T16:16:07.128Z,25.76
2022-09-12T16:18:33.350Z,25.42
2022-09-12T16:20:59.479Z,25.21
2022-09-12T16:23:25.633Z,24.97
2022-09-12T16:25:53.224Z,24.75
2022-09-12T16:28:19.369Z,24.52
2022-09-12T16:30:45.546Z,24.41
2022-09-12T16:33:11.773Z,24.19
2022-09-12T16:35:37.982Z,24.08
2022-09-12T16:38:04.168Z,23.89
2022-09-12T16:40:30.300Z,23.81
2022-09-12T16:42:56.433Z,23.67
2022-09-12T16:45:22.571Z,23.52
2022-09-12T16:47:48.732Z,23.47
2022-09-12T16:50:14.903Z,23.41
2022-09-12T16:52:41.089Z,23.36
2022-09-12T16:55:07.254Z,23.36
2022-09-12T16:57:33.400Z,23.29
2022-09-12T16:59:59.584Z,23.23
2022-09-12T17:02:25.876Z,23.18
2022-09-12T17:04:52.053Z,23.09
2022-09-12T17:07:18.219Z,23.15
2022-09-12T17:09:47.887Z,23.12
2022-09-12T17:12:14.200Z,23.10
2022-09-12T17:14:40.353Z,23.04
2022-09-12T17:17:06.508Z,22.95
2022-09-12T17:19:32.653Z,22.86
2022-09-12T17:21:58.797Z,22.70
2022-09-12T17:24:24.946Z,22.56
2022-09-12T17:26:51.058Z,22.41
2022-09-12T17:29:17.193Z,22.30
2022-09-12T17:31:43.413Z,22.12
2022-09-12T17:34:09.572Z,21.90
2022-09-12T17:36:35.757Z,21.78
2022-09-12T17:39:01.878Z,21.60
2022-09-12T17:41:28.008Z,21.50
2022-09-12T17:43:54.204Z,21.38
2022-09-12T17:46:20.431Z,21.19
2022-09-12T17:48:46.650Z,21.08
2022-09-12T17:51:12.803Z,20.91
2022-09-12T17:53:42.094Z,20.73
2022-09-12T17:56:08.347Z,20.66
2022-09-12T17:58:34.658Z,20.50
2022-09-12T18:01:00.860Z,20.39
2022-09-12T18:03:27.029Z,20.23
2022-09-12T18:05:53.171Z,20.13
2022-09-12T18:08:19.303Z,20.04
2022-09-12T18:10:45.551Z,19.99
2022-09-12T18:13:12.194Z,19.89
2022-09-12T18:15:38.556Z,19.81
2022-09-12T18:18:04.770Z,19.70
2022-09-12T18:20:31.004Z,19.68
2022-09-12T18:22:57.193Z,19.60
2022-09-12T18:25:23.368Z,19.59
2022-09-12T18:27:49.519Z,19.46
2022-09-12T18:30:21.538Z,19.43
2022-09-12T18:32:48.202Z,19.39
2022-09-12T18:35:15.473Z,19.31
2022-09-12T18:37:42.045Z,19.22
2022-09-12T18:40:08.320Z,19.20
2022-09-12T18:42:34.601Z,19.06
2022-09-12T18:45:03.038Z,18.97
2022-09-12T18:47:29.205Z,18.92
2022-09-12T18:49:55.367Z,18.84
2022-09-12T18:52:21.752Z,18.78
2022-09-12T18:54:47.975Z,18.67
2022-09-12T18:57:14.170Z,18.60
2022-09-12T18:59:40.413Z,18.58
2022-09-12T19:02:08.885Z,18.53
2022-09-12T19:04:35.201Z,18.44
2022-09-12T19:07:02.529Z,18.41
2022-09-12T19:09:34.595Z,18.34
2022-09-12T19:12:00.863Z,18.27
2022-09-12T19:14:28.433Z,18.25
2022-09-12T19:16:54.600Z,18.20
2022-09-12T19:19:22.225Z,18.15
2022-09-12T19:24:32.155Z,18.03
2022-09-12T19:26:58.380Z,17.98
2022-09-12T19:29:24.573Z,17.93
2022-09-12T19:31:50.733Z,17.88
2022-09-12T19:34:16.885Z,17.84
2022-09-12T19:36:45.751Z,17.79
2022-09-12T19:39:12.306Z,17.73
2022-09-12T19:41:38.551Z,17.64
2022-09-12T19:44:04.710Z,17.54
2022-09-12T19:46:30.858Z,17.46
2022-09-12T19:48:57.065Z,17.44
2022-09-12T19:51:23.244Z,17.42
2022-09-12T19:53:49.388Z,17.38
2022-09-12T19:56:19.859Z,17.31
2022-09-12T19:58:46.054Z,17.20
2022-09-12T20:01:12.302Z,17.12
2022-09-12T20:03:38.513Z,17.14
2022-09-12T20:06:04.634Z,16.97
2022-09-12T20:08:30.754Z,16.96
2022-09-12T20:10:57.281Z,16.98
2022-09-12T20:13:23.496Z,16.99
2022-09-12T20:15:49.861Z,16.90
2022-09-12T20:18:17.937Z,16.85
2022-09-12T20:20:44.125Z,16.73
2022-09-12T20:23:10.242Z,16.66
2022-09-12T20:25:36.372Z,16.53
2022-09-12T20:28:02.494Z,16.53
2022-09-12T20:30:30.822Z,16.54
2022-09-12T20:32:56.969Z,16.52
2022-09-12T20:35:23.112Z,16.36
2022-09-12T20:37:49.327Z,16.30
2022-09-12T20:40:15.451Z,16.33
2022-09-12T20:42:41.594Z,16.18
2022-09-12T20:45:07.848Z,16.20
2022-09-12T20:47:33.980Z,16.09
2022-09-12T20:50:00.113Z,16.08
2022-09-12T20:52:26.261Z,16.02
2022-09-12T20:54:52.406Z,16.00
2022-09-12T20:57:18.532Z,16.00
2022-09-12T20:59:44.715Z,15.91
2022-09-12T21:02:10.952Z,15.82
2022-09-12T21:04:37.134Z,15.71
2022-09-12T21:07:03.309Z,15.73
2022-09-12T21:09:29.432Z,15.67
2022-09-12T21:11:55.581Z,15.63
2022-09-12T21:14:21.850Z,15.60
2022-09-12T21:16:47.987Z,15.59
2022-09-12T21:19:14.103Z,15.61
2022-09-12T21:21:40.243Z,15.43
2022-09-12T21:24:06.371Z,15.48
2022-09-12T21:26:32.541Z,15.42
2022-09-12T21:28:58.703Z,15.42
2022-09-12T21:31:24.908Z,15.31
2022-09-12T21:33:51.131Z,15.28
2022-09-12T21:36:17.466Z,15.26
2022-09-12T21:38:44.846Z,15.25
2022-09-12T21:41:10.970Z,15.20
2022-09-12T21:43:37.138Z,15.16
2022-09-12T21:46:03.362Z,15.17
2022-09-12T21:48:29.551Z,15.18
2022-09-12T21:50:57.361Z,15.19
2022-09-12T21:53:23.487Z,15.11
2022-09-12T21:55:49.643Z,15.13
2022-09-12T21:58:15.797Z,15.09
2022-09-12T22:00:41.953Z,15.06
2022-09-12T22:03:08.109Z,15.07
2022-09-12T22:05:34.206Z,15.09
2022-09-12T22:08:00.359Z,15.09
2022-09-12T22:10:26.503Z,15.09
2022-09-12T22:12:52.649Z,15.08
2022-09-12T22:15:39.568Z,15.03
2022-09-12T22:18:04.908Z,15.00
2022-09-12T22:20:31.057Z,14.94
2022-09-12T22:22:57.200Z,14.87
2022-09-12T22:25:23.332Z,14.90
2022-09-12T22:27:49.460Z,14.86
2022-09-12T22:30:15.604Z,14.93
2022-09-12T22:32:41.769Z,14.93
2022-09-12T22:35:07.889Z,15.00
2022-09-12T22:37:34.021Z,14.97
2022-09-12T22:40:00.261Z,14.86
2022-09-12T22:42:26.461Z,14.83
2022-09-12T22:44:52.600Z,14.90
2022-09-12T22:47:18.727Z,14.91
2022-09-12T22:49:44.834Z,14.87
2022-09-12T22:52:11.985Z,14.86
2022-09-12T22:54:38.103Z,14.87
2022-09-12T22:57:06.414Z,14.86
2022-09-12T22:59:32.524Z,14.90
2022-09-12T23:01:58.661Z,14.87
2022-09-12T23:04:24.832Z,14.81
2022-09-12T23:06:50.951Z,14.80
2022-09-12T23:09:17.067Z,14.79
2022-09-12T23:11:43.232Z,14.68
2022-09-12T23:14:09.332Z,14.73
2022-09-12T23:16:35.515Z,14.65
2022-09-12T23:19:01.701Z,14.58
2022-09-12T23:21:27.816Z,14.54
2022-09-12T23:23:53.927Z,14.47
2022-09-12T23:26:20.043Z,14.50
2022-09-12T23:28:46.197Z,14.45
2022-09-12T23:31:12.424Z,14.42
2022-09-12T23:33:38.622Z,14.37
2022-09-12T23:36:04.745Z,14.34
2022-09-12T23:38:30.885Z,14.29
2022-09-12T23:40:57.020Z,14.18
2022-09-12T23:43:25.278Z,14.26
2022-09-12T23:45:51.459Z,14.14
2022-09-12T23:48:17.647Z,14.12
2022-09-12T23:50:43.809Z,14.11
2022-09-12T23:53:10.754Z,14.06
2022-09-12T23:55:38.108Z,13.98
2022-09-12T23:58:04.209Z,13.97
